sensor_id;sensor_type;location;lat;lon;timestamp;P1;durP1;ratioP1;P2;durP2;ratioP2
43325;SDS011;28920;59.862;30.636;2024-01-30T00:00:50;13.18;;;6.82;;
43325;SDS011;28920;59.862;30.636;2024-01-30T00:03:18;16.85;;;7.85;;
43325;SDS011;28920;59.862;30.636;2024-01-30T00:05:45;17.17;;;9.45;;
43325;SDS011;28920;59.862;30.636;2024-01-30T00:08:12;21.77;;;8.00;;
43325;SDS011;28920;59.862;30.636;2024-01-30T00:10:40;14.30;;;6.70;;
43325;SDS011;28920;59.862;30.636;2024-01-30T00:13:07;18.62;;;7.45;;
43325;SDS011;28920;59.862;30.636;2024-01-30T00:15:35;15.80;;;7.32;;
43325;SDS011;28920;59.862;30.636;2024-01-30T00:18:03;20.17;;;7.18;;
43325;SDS011;28920;59.862;30.636;2024-01-30T00:20:30;20.02;;;8.27;;
43325;SDS011;28920;59.862;30.636;2024-01-30T00:22:58;23.27;;;9.75;;
43325;SDS011;28920;59.862;30.636;2024-01-30T00:25:25;20.73;;;7.70;;
43325;SDS011;28920;59.862;30.636;2024-01-30T00:27:52;12.90;;;6.93;;
43325;SDS011;28920;59.862;30.636;2024-01-30T00:30:20;19.90;;;8.55;;
43325;SDS011;28920;59.862;30.636;2024-01-30T00:32:48;18.10;;;8.02;;
43325;SDS011;28920;59.862;30.636;2024-01-30T00:35:15;14.00;;;7.05;;
43325;SDS011;28920;59.862;30.636;2024-01-30T00:37:43;14.75;;;6.72;;
43325;SDS011;28920;59.862;30.636;2024-01-30T00:40:11;14.40;;;7.57;;
43325;SDS011;28920;59.862;30.636;2024-01-30T00:42:41;16.15;;;7.37;;
43325;SDS011;28920;59.862;30.636;2024-01-30T00:45:11;18.75;;;8.30;;
43325;SDS011;28920;59.862;30.636;2024-01-30T00:47:40;20.30;;;7.72;;
43325;SDS011;28920;59.862;30.636;2024-01-30T00:50:07;16.15;;;7.50;;
43325;SDS011;28920;59.862;30.636;2024-01-30T00:52:36;20.30;;;8.50;;
43325;SDS011;28920;59.862;30.636;2024-01-30T00:55:05;17.42;;;7.72;;
43325;SDS011;28920;59.862;30.636;2024-01-30T00:57:33;15.77;;;7.50;;
43325;SDS011;28920;59.862;30.636;2024-01-30T01:00:00;23.75;;;9.35;;
43325;SDS011;28920;59.862;30.636;2024-01-30T01:02:30;12.35;;;7.55;;
43325;SDS011;28920;59.862;30.636;2024-01-30T01:04:57;20.20;;;8.15;;
43325;SDS011;28920;59.862;30.636;2024-01-30T01:07:24;16.12;;;7.70;;
43325;SDS011;28920;59.862;30.636;2024-01-30T01:09:53;25.70;;;8.38;;
43325;SDS011;28920;59.862;30.636;2024-01-30T01:12:20;17.73;;;8.43;;
43325;SDS011;28920;59.862;30.636;2024-01-30T01:14:47;18.33;;;9.18;;
43325;SDS011;28920;59.862;30.636;2024-01-30T01:17:16;16.42;;;7.62;;
43325;SDS011;28920;59.862;30.636;2024-01-30T01:19:44;23.35;;;9.25;;
43325;SDS011;28920;59.862;30.636;2024-01-30T01:22:11;19.25;;;8.38;;
43325;SDS011;28920;59.862;30.636;2024-01-30T01:24:39;22.73;;;8.98;;
43325;SDS011;28920;59.862;30.636;2024-01-30T01:27:07;16.30;;;8.07;;
43325;SDS011;28920;59.862;30.636;2024-01-30T01:29:34;19.17;;;8.00;;
43325;SDS011;28920;59.862;30.636;2024-01-30T01:32:02;18.00;;;7.57;;
43325;SDS011;28920;59.862;30.636;2024-01-30T01:34:30;18.12;;;9.15;;
43325;SDS011;28920;59.862;30.636;2024-01-30T01:36:57;18.83;;;8.27;;
43325;SDS011;28920;59.862;30.636;2024-01-30T01:39:25;19.33;;;9.50;;
43325;SDS011;28920;59.862;30.636;2024-01-30T01:41:52;15.45;;;8.93;;
43325;SDS011;28920;59.862;30.636;2024-01-30T01:44:20;12.95;;;7.35;;
43325;SDS011;28920;59.862;30.636;2024-01-30T01:46:47;15.18;;;7.93;;
43325;SDS011;28920;59.862;30.636;2024-01-30T01:49:15;14.98;;;7.93;;
43325;SDS011;28920;59.862;30.636;2024-01-30T01:51:42;18.92;;;8.45;;
43325;SDS011;28920;59.862;30.636;2024-01-30T01:54:11;15.80;;;7.10;;
43325;SDS011;28920;59.862;30.636;2024-01-30T01:56:39;16.62;;;7.65;;
43325;SDS011;28920;59.862;30.636;2024-01-30T01:59:09;15.45;;;7.90;;
43325;SDS011;28920;59.862;30.636;2024-01-30T02:01:37;15.40;;;7.10;;
43325;SDS011;28920;59.862;30.636;2024-01-30T02:04:07;19.37;;;8.50;;
43325;SDS011;28920;59.862;30.636;2024-01-30T02:06:34;16.37;;;7.07;;
43325;SDS011;28920;59.862;30.636;2024-01-30T02:09:02;19.23;;;8.38;;
43325;SDS011;28920;59.862;30.636;2024-01-30T02:11:31;21.60;;;7.18;;
43325;SDS011;28920;59.862;30.636;2024-01-30T02:14:01;15.50;;;6.93;;
43325;SDS011;28920;59.862;30.636;2024-01-30T02:16:29;16.37;;;7.10;;
43325;SDS011;28920;59.862;30.636;2024-01-30T02:18:58;13.93;;;6.55;;
43325;SDS011;28920;59.862;30.636;2024-01-30T02:21:35;17.12;;;6.95;;
43325;SDS011;28920;59.862;30.636;2024-01-30T02:24:03;13.65;;;6.75;;
43325;SDS011;28920;59.862;30.636;2024-01-30T02:26:31;15.35;;;6.20;;
43325;SDS011;28920;59.862;30.636;2024-01-30T02:28:58;18.05;;;6.57;;
43325;SDS011;28920;59.862;30.636;2024-01-30T02:31:26;18.70;;;8.00;;
43325;SDS011;28920;59.862;30.636;2024-01-30T02:33:53;21.58;;;6.65;;
43325;SDS011;28920;59.862;30.636;2024-01-30T02:36:20;19.95;;;6.28;;
43325;SDS011;28920;59.862;30.636;2024-01-30T02:38:49;16.50;;;6.00;;
43325;SDS011;28920;59.862;30.636;2024-01-30T02:41:16;13.48;;;5.28;;
43325;SDS011;28920;59.862;30.636;2024-01-30T02:43:43;11.02;;;5.20;;
43325;SDS011;28920;59.862;30.636;2024-01-30T02:46:11;12.07;;;5.43;;
43325;SDS011;28920;59.862;30.636;2024-01-30T02:48:38;11.65;;;6.55;;
43325;SDS011;28920;59.862;30.636;2024-01-30T02:51:06;14.95;;;6.78;;
43325;SDS011;28920;59.862;30.636;2024-01-30T02:53:33;11.95;;;5.95;;
43325;SDS011;28920;59.862;30.636;2024-01-30T02:56:01;16.33;;;5.87;;
43325;SDS011;28920;59.862;30.636;2024-01-30T02:58:29;15.18;;;7.62;;
43325;SDS011;28920;59.862;30.636;2024-01-30T03:00:56;20.00;;;8.32;;
43325;SDS011;28920;59.862;30.636;2024-01-30T03:03:24;15.57;;;6.40;;
43325;SDS011;28920;59.862;30.636;2024-01-30T03:05:51;14.65;;;6.05;;
43325;SDS011;28920;59.862;30.636;2024-01-30T03:08:18;16.95;;;6.93;;
43325;SDS011;28920;59.862;30.636;2024-01-30T03:10:46;18.35;;;6.15;;
43325;SDS011;28920;59.862;30.636;2024-01-30T03:13:14;13.73;;;7.15;;
43325;SDS011;28920;59.862;30.636;2024-01-30T03:15:41;14.48;;;6.03;;
43325;SDS011;28920;59.862;30.636;2024-01-30T03:18:08;14.73;;;5.90;;
43325;SDS011;28920;59.862;30.636;2024-01-30T03:20:36;9.93;;;5.53;;
43325;SDS011;28920;59.862;30.636;2024-01-30T03:23:03;12.52;;;5.90;;
43325;SDS011;28920;59.862;30.636;2024-01-30T03:25:31;16.12;;;6.55;;
43325;SDS011;28920;59.862;30.636;2024-01-30T03:27:58;12.05;;;6.43;;
43325;SDS011;28920;59.862;30.636;2024-01-30T03:30:27;12.43;;;6.45;;
43325;SDS011;28920;59.862;30.636;2024-01-30T03:32:54;18.70;;;6.97;;
43325;SDS011;28920;59.862;30.636;2024-01-30T03:35:21;14.85;;;6.75;;
43325;SDS011;28920;59.862;30.636;2024-01-30T03:37:49;15.13;;;7.57;;
43325;SDS011;28920;59.862;30.636;2024-01-30T03:40:16;18.90;;;8.68;;
43325;SDS011;28920;59.862;30.636;2024-01-30T03:42:44;17.95;;;8.60;;
43325;SDS011;28920;59.862;30.636;2024-01-30T03:45:12;17.15;;;7.55;;
43325;SDS011;28920;59.862;30.636;2024-01-30T03:47:40;14.68;;;8.30;;
43325;SDS011;28920;59.862;30.636;2024-01-30T03:50:10;15.10;;;7.00;;
43325;SDS011;28920;59.862;30.636;2024-01-30T03:52:37;19.08;;;7.47;;
43325;SDS011;28920;59.862;30.636;2024-01-30T03:55:05;17.92;;;7.68;;
43325;SDS011;28920;59.862;30.636;2024-01-30T03:57:33;13.85;;;6.78;;
43325;SDS011;28920;59.862;30.636;2024-01-30T04:00:00;16.45;;;7.60;;
43325;SDS011;28920;59.862;30.636;2024-01-30T04:02:38;11.65;;;5.90;;
43325;SDS011;28920;59.862;30.636;2024-01-30T04:05:07;12.55;;;5.72;;
43325;SDS011;28920;59.862;30.636;2024-01-30T04:07:34;14.98;;;6.30;;
43325;SDS011;28920;59.862;30.636;2024-01-30T04:10:02;16.40;;;5.90;;
43325;SDS011;28920;59.862;30.636;2024-01-30T04:12:32;17.15;;;7.72;;
43325;SDS011;28920;59.862;30.636;2024-01-30T04:14:59;19.02;;;7.60;;
43325;SDS011;28920;59.862;30.636;2024-01-30T04:17:26;18.05;;;6.87;;
43325;SDS011;28920;59.862;30.636;2024-01-30T04:19:56;12.93;;;7.10;;
43325;SDS011;28920;59.862;30.636;2024-01-30T04:22:23;14.05;;;7.12;;
43325;SDS011;28920;59.862;30.636;2024-01-30T04:24:50;15.88;;;6.90;;
43325;SDS011;28920;59.862;30.636;2024-01-30T04:27:18;23.08;;;9.50;;
43325;SDS011;28920;59.862;30.636;2024-01-30T04:29:45;17.52;;;8.15;;
43325;SDS011;28920;59.862;30.636;2024-01-30T04:32:12;15.85;;;7.90;;
43325;SDS011;28920;59.862;30.636;2024-01-30T04:34:40;13.90;;;7.07;;
43325;SDS011;28920;59.862;30.636;2024-01-30T04:37:08;11.95;;;6.97;;
43325;SDS011;28920;59.862;30.636;2024-01-30T04:39:35;14.95;;;8.32;;
43325;SDS011;28920;59.862;30.636;2024-01-30T04:42:04;19.23;;;7.62;;
43325;SDS011;28920;59.862;30.636;2024-01-30T04:44:31;16.55;;;8.93;;
43325;SDS011;28920;59.862;30.636;2024-01-30T04:46:59;22.55;;;9.30;;
43325;SDS011;28920;59.862;30.636;2024-01-30T04:49:27;17.23;;;9.90;;
43325;SDS011;28920;59.862;30.636;2024-01-30T04:51:55;17.02;;;10.45;;
43325;SDS011;28920;59.862;30.636;2024-01-30T04:54:23;21.33;;;10.45;;
43325;SDS011;28920;59.862;30.636;2024-01-30T04:56:51;27.80;;;11.75;;
43325;SDS011;28920;59.862;30.636;2024-01-30T04:59:18;23.25;;;11.25;;
43325;SDS011;28920;59.862;30.636;2024-01-30T05:01:45;19.50;;;11.45;;
43325;SDS011;28920;59.862;30.636;2024-01-30T05:04:13;25.70;;;12.95;;
43325;SDS011;28920;59.862;30.636;2024-01-30T05:06:40;16.48;;;10.32;;
43325;SDS011;28920;59.862;30.636;2024-01-30T05:09:07;25.77;;;10.55;;
43325;SDS011;28920;59.862;30.636;2024-01-30T05:11:37;18.80;;;10.45;;
43325;SDS011;28920;59.862;30.636;2024-01-30T05:14:05;19.90;;;10.02;;
43325;SDS011;28920;59.862;30.636;2024-01-30T05:16:32;28.23;;;10.98;;
43325;SDS011;28920;59.862;30.636;2024-01-30T05:19:00;21.20;;;9.90;;
43325;SDS011;28920;59.862;30.636;2024-01-30T05:21:27;23.92;;;10.77;;
43325;SDS011;28920;59.862;30.636;2024-01-30T05:23:54;24.65;;;10.27;;
43325;SDS011;28920;59.862;30.636;2024-01-30T05:26:22;19.42;;;8.23;;
43325;SDS011;28920;59.862;30.636;2024-01-30T05:28:50;18.73;;;9.60;;
43325;SDS011;28920;59.862;30.636;2024-01-30T05:31:17;20.40;;;9.23;;
43325;SDS011;28920;59.862;30.636;2024-01-30T05:33:46;20.12;;;8.30;;
43325;SDS011;28920;59.862;30.636;2024-01-30T05:36:13;17.00;;;7.03;;
43325;SDS011;28920;59.862;30.636;2024-01-30T05:38:40;18.60;;;8.43;;
43325;SDS011;28920;59.862;30.636;2024-01-30T05:41:08;16.40;;;7.45;;
43325;SDS011;28920;59.862;30.636;2024-01-30T05:43:36;22.02;;;7.95;;
43325;SDS011;28920;59.862;30.636;2024-01-30T05:46:04;18.30;;;7.57;;
43325;SDS011;28920;59.862;30.636;2024-01-30T05:48:31;20.00;;;9.13;;
43325;SDS011;28920;59.862;30.636;2024-01-30T05:50:58;17.30;;;7.93;;
43325;SDS011;28920;59.862;30.636;2024-01-30T05:53:29;19.23;;;9.27;;
43325;SDS011;28920;59.862;30.636;2024-01-30T05:55:57;20.60;;;8.15;;
43325;SDS011;28920;59.862;30.636;2024-01-30T05:58:24;21.58;;;7.75;;
43325;SDS011;28920;59.862;30.636;2024-01-30T06:00:51;21.50;;;8.20;;
43325;SDS011;28920;59.862;30.636;2024-01-30T06:03:20;16.55;;;7.20;;
43325;SDS011;28920;59.862;30.636;2024-01-30T06:05:47;20.50;;;7.80;;
43325;SDS011;28920;59.862;30.636;2024-01-30T06:08:14;17.12;;;7.37;;
43325;SDS011;28920;59.862;30.636;2024-01-30T06:10:42;19.12;;;8.40;;
43325;SDS011;28920;59.862;30.636;2024-01-30T06:13:09;21.30;;;11.20;;
43325;SDS011;28920;59.862;30.636;2024-01-30T06:15:36;19.25;;;7.87;;
43325;SDS011;28920;59.862;30.636;2024-01-30T06:18:04;17.60;;;7.53;;
43325;SDS011;28920;59.862;30.636;2024-01-30T06:20:32;15.88;;;7.50;;
43325;SDS011;28920;59.862;30.636;2024-01-30T06:22:59;18.73;;;6.37;;
43325;SDS011;28920;59.862;30.636;2024-01-30T06:25:27;18.00;;;7.18;;
43325;SDS011;28920;59.862;30.636;2024-01-30T06:27:55;15.93;;;7.53;;
43325;SDS011;28920;59.862;30.636;2024-01-30T06:30:22;17.55;;;8.13;;
43325;SDS011;28920;59.862;30.636;2024-01-30T06:32:49;19.08;;;9.43;;
43325;SDS011;28920;59.862;30.636;2024-01-30T06:35:17;18.17;;;9.65;;
43325;SDS011;28920;59.862;30.636;2024-01-30T06:37:45;22.37;;;10.38;;
43325;SDS011;28920;59.862;30.636;2024-01-30T06:40:12;24.52;;;8.60;;
43325;SDS011;28920;59.862;30.636;2024-01-30T06:42:40;22.77;;;9.85;;
43325;SDS011;28920;59.862;30.636;2024-01-30T06:45:07;19.48;;;10.07;;
43325;SDS011;28920;59.862;30.636;2024-01-30T06:47:36;22.23;;;9.65;;
43325;SDS011;28920;59.862;30.636;2024-01-30T06:50:03;17.52;;;8.85;;
43325;SDS011;28920;59.862;30.636;2024-01-30T06:52:31;16.87;;;7.60;;
43325;SDS011;28920;59.862;30.636;2024-01-30T06:54:59;16.45;;;8.23;;
43325;SDS011;28920;59.862;30.636;2024-01-30T06:57:26;19.60;;;9.20;;
43325;SDS011;28920;59.862;30.636;2024-01-30T06:59:55;16.12;;;8.30;;
43325;SDS011;28920;59.862;30.636;2024-01-30T07:02:23;17.40;;;8.60;;
43325;SDS011;28920;59.862;30.636;2024-01-30T07:04:50;24.42;;;8.75;;
43325;SDS011;28920;59.862;30.636;2024-01-30T07:07:17;16.20;;;8.70;;
43325;SDS011;28920;59.862;30.636;2024-01-30T07:09:45;20.73;;;9.90;;
43325;SDS011;28920;59.862;30.636;2024-01-30T07:12:14;19.12;;;8.75;;
43325;SDS011;28920;59.862;30.636;2024-01-30T07:14:41;20.05;;;9.07;;
43325;SDS011;28920;59.862;30.636;2024-01-30T07:17:09;17.37;;;9.40;;
43325;SDS011;28920;59.862;30.636;2024-01-30T07:19:36;22.50;;;10.77;;
43325;SDS011;28920;59.862;30.636;2024-01-30T07:22:03;21.20;;;9.65;;
43325;SDS011;28920;59.862;30.636;2024-01-30T07:24:31;21.73;;;10.23;;
43325;SDS011;28920;59.862;30.636;2024-01-30T07:26:58;23.30;;;9.30;;
43325;SDS011;28920;59.862;30.636;2024-01-30T07:29:26;16.65;;;8.80;;
43325;SDS011;28920;59.862;30.636;2024-01-30T07:31:54;25.10;;;10.88;;
43325;SDS011;28920;59.862;30.636;2024-01-30T07:34:21;22.90;;;10.18;;
43325;SDS011;28920;59.862;30.636;2024-01-30T07:36:48;21.80;;;10.60;;
43325;SDS011;28920;59.862;30.636;2024-01-30T07:39:16;17.62;;;10.10;;
43325;SDS011;28920;59.862;30.636;2024-01-30T07:41:43;27.00;;;10.07;;
43325;SDS011;28920;59.862;30.636;2024-01-30T07:44:10;19.75;;;9.27;;
43325;SDS011;28920;59.862;30.636;2024-01-30T07:46:39;23.87;;;12.50;;
43325;SDS011;28920;59.862;30.636;2024-01-30T07:49:06;20.55;;;10.18;;
43325;SDS011;28920;59.862;30.636;2024-01-30T07:51:33;23.87;;;12.05;;
43325;SDS011;28920;59.862;30.636;2024-01-30T07:54:01;21.95;;;10.40;;
43325;SDS011;28920;59.862;30.636;2024-01-30T07:56:28;21.35;;;10.88;;
43325;SDS011;28920;59.862;30.636;2024-01-30T07:58:55;24.60;;;12.85;;
43325;SDS011;28920;59.862;30.636;2024-01-30T08:01:23;25.10;;;11.60;;
43325;SDS011;28920;59.862;30.636;2024-01-30T08:03:51;23.85;;;12.90;;
43325;SDS011;28920;59.862;30.636;2024-01-30T08:06:18;18.77;;;9.73;;
43325;SDS011;28920;59.862;30.636;2024-01-30T08:08:45;22.50;;;9.25;;
43325;SDS011;28920;59.862;30.636;2024-01-30T08:11:13;31.58;;;12.37;;
43325;SDS011;28920;59.862;30.636;2024-01-30T08:13:40;23.10;;;9.82;;
43325;SDS011;28920;59.862;30.636;2024-01-30T08:16:07;20.37;;;9.85;;
43325;SDS011;28920;59.862;30.636;2024-01-30T08:18:35;26.10;;;10.00;;
43325;SDS011;28920;59.862;30.636;2024-01-30T08:21:03;29.95;;;10.88;;
43325;SDS011;28920;59.862;30.636;2024-01-30T08:23:31;18.92;;;9.35;;
43325;SDS011;28920;59.862;30.636;2024-01-30T08:25:59;21.37;;;10.43;;
43325;SDS011;28920;59.862;30.636;2024-01-30T08:28:26;23.08;;;8.02;;
43325;SDS011;28920;59.862;30.636;2024-01-30T08:30:54;17.45;;;9.27;;
43325;SDS011;28920;59.862;30.636;2024-01-30T08:33:21;17.02;;;8.48;;
43325;SDS011;28920;59.862;30.636;2024-01-30T08:35:49;19.75;;;8.57;;
43325;SDS011;28920;59.862;30.636;2024-01-30T08:38:17;17.85;;;8.75;;
43325;SDS011;28920;59.862;30.636;2024-01-30T08:40:44;18.42;;;9.68;;
43325;SDS011;28920;59.862;30.636;2024-01-30T08:43:11;15.70;;;8.40;;
43325;SDS011;28920;59.862;30.636;2024-01-30T08:45:38;19.23;;;9.70;;
43325;SDS011;28920;59.862;30.636;2024-01-30T08:48:06;19.67;;;9.02;;
43325;SDS011;28920;59.862;30.636;2024-01-30T08:50:34;20.55;;;9.52;;
43325;SDS011;28920;59.862;30.636;2024-01-30T08:53:01;18.75;;;10.23;;
43325;SDS011;28920;59.862;30.636;2024-01-30T08:55:30;26.77;;;10.35;;
43325;SDS011;28920;59.862;30.636;2024-01-30T08:57:57;19.92;;;10.43;;
43325;SDS011;28920;59.862;30.636;2024-01-30T09:00:24;22.00;;;10.80;;
43325;SDS011;28920;59.862;30.636;2024-01-30T09:02:52;18.08;;;10.00;;
43325;SDS011;28920;59.862;30.636;2024-01-30T09:05:19;17.45;;;9.52;;
43325;SDS011;28920;59.862;30.636;2024-01-30T09:07:46;18.05;;;9.95;;
43325;SDS011;28920;59.862;30.636;2024-01-30T09:10:14;23.50;;;10.05;;
43325;SDS011;28920;59.862;30.636;2024-01-30T09:12:43;15.57;;;9.43;;
43325;SDS011;28920;59.862;30.636;2024-01-30T09:15:10;19.73;;;9.15;;
43325;SDS011;28920;59.862;30.636;2024-01-30T09:17:38;20.92;;;9.63;;
43325;SDS011;28920;59.862;30.636;2024-01-30T09:20:05;18.33;;;9.48;;
43325;SDS011;28920;59.862;30.636;2024-01-30T09:22:33;18.23;;;9.25;;
43325;SDS011;28920;59.862;30.636;2024-01-30T09:25:01;14.75;;;8.60;;
43325;SDS011;28920;59.862;30.636;2024-01-30T09:27:29;16.08;;;8.30;;
43325;SDS011;28920;59.862;30.636;2024-01-30T09:29:57;21.80;;;10.65;;
43325;SDS011;28920;59.862;30.636;2024-01-30T09:32:25;21.55;;;9.75;;
43325;SDS011;28920;59.862;30.636;2024-01-30T09:34:52;21.33;;;9.98;;
43325;SDS011;28920;59.862;30.636;2024-01-30T09:37:19;22.77;;;9.85;;
43325;SDS011;28920;59.862;30.636;2024-01-30T09:39:47;26.70;;;12.02;;
43325;SDS011;28920;59.862;30.636;2024-01-30T09:42:17;21.98;;;12.00;;
43325;SDS011;28920;59.862;30.636;2024-01-30T09:44:49;31.83;;;15.88;;
43325;SDS011;28920;59.862;30.636;2024-01-30T09:47:18;47.53;;;19.27;;
43325;SDS011;28920;59.862;30.636;2024-01-30T09:49:46;33.03;;;14.27;;
43325;SDS011;28920;59.862;30.636;2024-01-30T09:52:14;24.23;;;12.10;;
43325;SDS011;28920;59.862;30.636;2024-01-30T09:54:42;27.85;;;11.98;;
43325;SDS011;28920;59.862;30.636;2024-01-30T13:02:52;15.38;;;9.77;;
43325;SDS011;28920;59.862;30.636;2024-01-30T13:05:20;15.82;;;9.85;;
43325;SDS011;28920;59.862;30.636;2024-01-30T13:07:47;18.85;;;9.77;;
43325;SDS011;28920;59.862;30.636;2024-01-30T13:10:14;20.85;;;9.40;;
43325;SDS011;28920;59.862;30.636;2024-01-30T13:12:42;18.10;;;9.57;;
43325;SDS011;28920;59.862;30.636;2024-01-30T13:15:09;22.77;;;10.82;;
43325;SDS011;28920;59.862;30.636;2024-01-30T13:17:37;17.40;;;10.32;;
43325;SDS011;28920;59.862;30.636;2024-01-30T13:20:06;15.60;;;9.75;;
43325;SDS011;28920;59.862;30.636;2024-01-30T13:22:34;19.73;;;9.73;;
43325;SDS011;28920;59.862;30.636;2024-01-30T13:25:03;19.08;;;9.80;;
43325;SDS011;28920;59.862;30.636;2024-01-30T13:27:32;17.17;;;9.45;;
43325;SDS011;28920;59.862;30.636;2024-01-30T13:29:59;16.55;;;9.38;;
43325;SDS011;28920;59.862;30.636;2024-01-30T13:32:26;20.80;;;10.18;;
43325;SDS011;28920;59.862;30.636;2024-01-30T13:34:54;16.00;;;9.57;;
43325;SDS011;28920;59.862;30.636;2024-01-30T13:37:22;15.02;;;8.73;;
43325;SDS011;28920;59.862;30.636;2024-01-30T13:39:50;23.00;;;9.73;;
43325;SDS011;28920;59.862;30.636;2024-01-30T13:42:18;21.40;;;10.43;;
43325;SDS011;28920;59.862;30.636;2024-01-30T13:44:45;18.08;;;9.63;;
43325;SDS011;28920;59.862;30.636;2024-01-30T13:47:12;20.85;;;10.02;;
43325;SDS011;28920;59.862;30.636;2024-01-30T13:49:40;20.62;;;10.38;;
43325;SDS011;28920;59.862;30.636;2024-01-30T13:52:08;17.80;;;9.13;;
43325;SDS011;28920;59.862;30.636;2024-01-30T13:54:36;19.00;;;9.35;;
43325;SDS011;28920;59.862;30.636;2024-01-30T13:57:04;16.60;;;9.90;;
43325;SDS011;28920;59.862;30.636;2024-01-30T13:59:32;22.23;;;10.68;;
43325;SDS011;28920;59.862;30.636;2024-01-30T14:02:00;18.45;;;9.45;;
43325;SDS011;28920;59.862;30.636;2024-01-30T14:04:27;27.00;;;9.98;;
43325;SDS011;28920;59.862;30.636;2024-01-30T14:06:55;19.77;;;9.65;;
43325;SDS011;28920;59.862;30.636;2024-01-30T14:09:22;21.60;;;10.05;;
43325;SDS011;28920;59.862;30.636;2024-01-30T14:11:51;19.23;;;9.52;;
43325;SDS011;28920;59.862;30.636;2024-01-30T14:14:18;29.05;;;11.70;;
43325;SDS011;28920;59.862;30.636;2024-01-30T14:16:45;21.95;;;11.10;;
43325;SDS011;28920;59.862;30.636;2024-01-30T14:19:13;25.92;;;11.73;;
43325;SDS011;28920;59.862;30.636;2024-01-30T14:21:40;26.90;;;12.82;;
43325;SDS011;28920;59.862;30.636;2024-01-30T14:24:08;28.55;;;13.70;;
43325;SDS011;28920;59.862;30.636;2024-01-30T14:26:36;23.12;;;11.23;;
43325;SDS011;28920;59.862;30.636;2024-01-30T14:29:04;27.73;;;12.35;;
43325;SDS011;28920;59.862;30.636;2024-01-30T14:31:32;26.85;;;14.45;;
43325;SDS011;28920;59.862;30.636;2024-01-30T14:33:59;28.52;;;14.65;;
43325;SDS011;28920;59.862;30.636;2024-01-30T14:36:27;35.53;;;17.52;;
43325;SDS011;28920;59.862;30.636;2024-01-30T14:38:54;42.62;;;16.00;;
43325;SDS011;28920;59.862;30.636;2024-01-30T14:41:22;33.08;;;16.30;;
43325;SDS011;28920;59.862;30.636;2024-01-30T14:43:49;28.80;;;18.05;;
43325;SDS011;28920;59.862;30.636;2024-01-30T14:46:18;27.27;;;16.17;;
43325;SDS011;28920;59.862;30.636;2024-01-30T14:48:45;35.95;;;17.70;;
43325;SDS011;28920;59.862;30.636;2024-01-30T14:51:13;38.67;;;17.35;;
43325;SDS011;28920;59.862;30.636;2024-01-30T14:53:41;45.67;;;20.05;;
43325;SDS011;28920;59.862;30.636;2024-01-30T14:56:08;37.42;;;21.55;;
43325;SDS011;28920;59.862;30.636;2024-01-30T14:58:37;54.45;;;24.73;;
43325;SDS011;28920;59.862;30.636;2024-01-30T15:01:04;46.72;;;25.55;;
43325;SDS011;28920;59.862;30.636;2024-01-30T15:03:33;48.40;;;23.73;;
43325;SDS011;28920;59.862;30.636;2024-01-30T15:06:01;46.70;;;22.75;;
43325;SDS011;28920;59.862;30.636;2024-01-30T15:08:31;56.15;;;23.75;;
43325;SDS011;28920;59.862;30.636;2024-01-30T15:10:59;41.25;;;20.40;;
43325;SDS011;28920;59.862;30.636;2024-01-30T15:13:26;42.25;;;20.10;;
43325;SDS011;28920;59.862;30.636;2024-01-30T15:15:54;42.10;;;19.65;;
43325;SDS011;28920;59.862;30.636;2024-01-30T15:18:21;46.08;;;24.77;;
43325;SDS011;28920;59.862;30.636;2024-01-30T15:20:49;62.97;;;30.73;;
43325;SDS011;28920;59.862;30.636;2024-01-30T15:23:17;52.03;;;26.10;;
43325;SDS011;28920;59.862;30.636;2024-01-30T15:25:44;44.45;;;23.27;;
43325;SDS011;28920;59.862;30.636;2024-01-30T15:28:12;63.67;;;26.92;;
43325;SDS011;28920;59.862;30.636;2024-01-30T15:30:41;206.25;;;68.05;;
43325;SDS011;28920;59.862;30.636;2024-01-30T15:33:09;152.10;;;55.42;;
43325;SDS011;28920;59.862;30.636;2024-01-30T15:35:36;81.32;;;33.95;;
43325;SDS011;28920;59.862;30.636;2024-01-30T15:38:05;73.72;;;32.42;;
43325;SDS011;28920;59.862;30.636;2024-01-30T15:40:34;48.45;;;25.10;;
43325;SDS011;28920;59.862;30.636;2024-01-30T15:43:02;51.88;;;23.75;;
43325;SDS011;28920;59.862;30.636;2024-01-30T15:45:30;49.33;;;24.58;;
43325;SDS011;28920;59.862;30.636;2024-01-30T15:47:58;58.65;;;27.20;;
43325;SDS011;28920;59.862;30.636;2024-01-30T15:50:25;53.67;;;27.65;;
43325;SDS011;28920;59.862;30.636;2024-01-30T15:52:53;59.80;;;30.60;;
43325;SDS011;28920;59.862;30.636;2024-01-30T15:55:21;71.60;;;32.67;;
43325;SDS011;28920;59.862;30.636;2024-01-30T15:57:48;58.45;;;28.85;;
43325;SDS011;28920;59.862;30.636;2024-01-30T16:00:17;62.30;;;28.35;;
43325;SDS011;28920;59.862;30.636;2024-01-30T16:02:45;68.60;;;33.08;;
43325;SDS011;28920;59.862;30.636;2024-01-30T16:05:13;73.15;;;33.60;;
43325;SDS011;28920;59.862;30.636;2024-01-30T16:07:40;72.25;;;34.30;;
43325;SDS011;28920;59.862;30.636;2024-01-30T16:10:08;69.45;;;31.60;;
43325;SDS011;28920;59.862;30.636;2024-01-30T16:12:43;56.50;;;27.10;;
43325;SDS011;28920;59.862;30.636;2024-01-30T16:15:12;52.62;;;26.77;;
43325;SDS011;28920;59.862;30.636;2024-01-30T16:17:40;55.95;;;26.45;;
43325;SDS011;28920;59.862;30.636;2024-01-30T16:20:07;48.97;;;24.48;;
43325;SDS011;28920;59.862;30.636;2024-01-30T16:22:35;65.00;;;27.02;;
43325;SDS011;28920;59.862;30.636;2024-01-30T16:25:03;59.95;;;28.50;;
43325;SDS011;28920;59.862;30.636;2024-01-30T16:27:31;53.92;;;25.27;;
43325;SDS011;28920;59.862;30.636;2024-01-30T16:29:59;53.80;;;29.12;;
43325;SDS011;28920;59.862;30.636;2024-01-30T16:32:27;58.97;;;25.88;;
43325;SDS011;28920;59.862;30.636;2024-01-30T16:34:57;65.03;;;27.50;;
43325;SDS011;28920;59.862;30.636;2024-01-30T16:37:25;49.20;;;25.62;;
43325;SDS011;28920;59.862;30.636;2024-01-30T16:39:53;56.92;;;25.33;;
43325;SDS011;28920;59.862;30.636;2024-01-30T16:42:20;49.95;;;24.15;;
43325;SDS011;28920;59.862;30.636;2024-01-30T16:44:48;55.88;;;24.60;;
43325;SDS011;28920;59.862;30.636;2024-01-30T16:47:16;48.47;;;25.65;;
43325;SDS011;28920;59.862;30.636;2024-01-30T16:49:43;51.22;;;25.17;;
43325;SDS011;28920;59.862;30.636;2024-01-30T16:52:11;49.75;;;25.58;;
43325;SDS011;28920;59.862;30.636;2024-01-30T16:54:38;63.38;;;26.90;;
43325;SDS011;28920;59.862;30.636;2024-01-30T16:57:05;51.50;;;26.25;;
43325;SDS011;28920;59.862;30.636;2024-01-30T16:59:33;55.42;;;23.58;;
43325;SDS011;28920;59.862;30.636;2024-01-30T17:02:00;56.85;;;25.33;;
43325;SDS011;28920;59.862;30.636;2024-01-30T17:04:29;54.83;;;26.40;;
43325;SDS011;28920;59.862;30.636;2024-01-30T17:06:59;54.97;;;28.03;;
43325;SDS011;28920;59.862;30.636;2024-01-30T17:09:28;51.35;;;27.45;;
43325;SDS011;28920;59.862;30.636;2024-01-30T17:11:55;55.72;;;26.30;;
43325;SDS011;28920;59.862;30.636;2024-01-30T17:14:23;61.35;;;25.98;;
43325;SDS011;28920;59.862;30.636;2024-01-30T17:16:50;54.13;;;25.10;;
43325;SDS011;28920;59.862;30.636;2024-01-30T17:19:18;63.25;;;28.75;;
43325;SDS011;28920;59.862;30.636;2024-01-30T17:21:47;55.85;;;26.15;;
43325;SDS011;28920;59.862;30.636;2024-01-30T17:24:14;58.33;;;24.55;;